sensor_id;sensor_type;location;lat;lon;timestamp;pressure;altitude;pressure_sealevel;temperature;humidity
49947;BME280;35839;48.662;13.300;2023-08-12T05:04:36;97670.53;;;28.80;36.28
49947;BME280;35839;48.662;13.300;2023-08-12T05:07:01;97665.22;;;28.95;35.85
49947;BME280;35839;48.662;13.300;2023-08-12T05:09:26;97666.03;;;29.54;35.10
49947;BME280;35839;48.662;13.300;2023-08-12T05:11:51;97673.66;;;29.72;34.53
49947;BME280;35839;48.662;13.300;2023-08-12T05:14:17;97673.13;;;29.86;35.05
49947;BME280;35839;48.662;13.300;2023-08-12T05:16:42;97673.69;;;29.98;34.77
49947;BME280;35839;48.662;13.300;2023-08-12T05:19:07;97671.50;;;29.85;34.88
49947;BME280;35839;48.662;13.300;2023-08-12T05:21:33;97674.25;;;30.41;33.96
49947;BME280;35839;48.662;13.300;2023-08-12T05:23:58;97674.78;;;30.48;34.14
49947;BME280;35839;48.662;13.300;2023-08-12T05:26:23;97676.16;;;30.35;34.52
49947;BME280;35839;48.662;13.300;2023-08-12T05:28:48;97673.13;;;30.67;33.64
49947;BME280;35839;48.662;13.300;2023-08-12T05:31:14;97678.84;;;30.61;35.00
49947;BME280;35839;48.662;13.300;2023-08-12T05:33:39;97675.00;;;30.93;33.59
49947;BME280;35839;48.662;13.300;2023-08-12T05:36:04;97671.75;;;30.96;34.17
49947;BME280;35839;48.662;13.300;2023-08-12T05:38:29;97674.25;;;30.61;35.06
49947;BME280;35839;48.662;13.300;2023-08-12T05:40:55;97673.38;;;30.81;34.39
49947;BME280;35839;48.662;13.300;2023-08-12T05:43:20;97674.19;;;30.77;34.62
49947;BME280;35839;48.662;13.300;2023-08-12T05:45:45;97672.56;;;30.96;35.23
49947;BME280;35839;48.662;13.300;2023-08-12T05:48:11;97675.84;;;30.73;34.58
49947;BME280;35839;48.662;13.300;2023-08-12T05:50:36;97679.38;;;30.37;35.80
49947;BME280;35839;48.662;13.300;2023-08-12T05:53:01;97677.22;;;30.39;35.68
49947;BME280;35839;48.662;13.300;2023-08-12T05:55:27;97679.66;;;30.56;35.67
49947;BME280;35839;48.662;13.300;2023-08-12T05:57:52;97679.38;;;30.68;36.62
49947;BME280;35839;48.662;13.300;2023-08-12T06:00:17;97684.22;;;30.71;36.97
49947;BME280;35839;48.662;13.300;2023-08-12T06:02:43;97675.28;;;30.96;37.02
49947;BME280;35839;48.662;13.300;2023-08-12T06:05:08;97674.75;;;30.89;38.21
49947;BME280;35839;48.662;13.300;2023-08-12T06:07:33;97669.31;;;30.79;37.72
49947;BME280;35839;48.662;13.300;2023-08-12T06:10:00;97663.13;;;31.59;36.51
49947;BME280;35839;48.662;13.300;2023-08-12T06:12:25;97668.28;;;32.00;36.35
49947;BME280;35839;48.662;13.300;2023-08-12T06:14:50;97666.47;;;32.59;35.46
49947;BME280;35839;48.662;13.300;2023-08-12T06:17:15;97665.38;;;32.60;35.13
49947;BME280;35839;48.662;13.300;2023-08-12T06:19:41;97681.22;;;32.13;35.97
49947;BME280;35839;48.662;13.300;2023-08-12T06:22:06;97668.50;;;32.72;34.56
49947;BME280;35839;48.662;13.300;2023-08-12T06:24:31;97682.81;;;33.07;33.76
49947;BME280;35839;48.662;13.300;2023-08-12T06:26:57;97672.50;;;33.28;33.76
49947;BME280;35839;48.662;13.300;2023-08-12T06:29:22;97674.16;;;33.29;34.08
49947;BME280;35839;48.662;13.300;2023-08-12T06:31:47;97663.84;;;33.26;33.92
49947;BME280;35839;48.662;13.300;2023-08-12T06:34:13;97665.38;;;33.75;33.13
49947;BME280;35839;48.662;13.300;2023-08-12T06:36:38;97664.06;;;33.91;32.52
49947;BME280;35839;48.662;13.300;2023-08-12T06:39:03;97664.34;;;34.28;32.37
49947;BME280;35839;48.662;13.300;2023-08-12T06:41:29;97669.53;;;34.43;32.43
49947;BME280;35839;48.662;13.300;2023-08-12T06:43:54;97670.09;;;34.87;31.63
49947;BME280;35839;48.662;13.300;2023-08-12T06:46:19;97668.59;;;35.36;30.66
49947;BME280;35839;48.662;13.300;2023-08-12T06:48:44;97676.69;;;35.27;31.20
49947;BME280;35839;48.662;13.300;2023-08-12T06:51:10;97671.81;;;35.38;30.36
49947;BME280;35839;48.662;13.300;2023-08-12T06:53:36;97661.03;;;35.33;30.82
49947;BME280;35839;48.662;13.300;2023-08-12T06:56:02;97663.56;;;34.88;32.70
49947;BME280;35839;48.662;13.300;2023-08-12T06:58:27;97661.75;;;35.24;31.86
49947;BME280;35839;48.662;13.300;2023-08-12T07:00:53;97655.31;;;35.07;31.64
49947;BME280;35839;48.662;13.300;2023-08-12T07:03:18;97658.69;;;34.71;32.49
49947;BME280;35839;48.662;13.300;2023-08-12T07:05:44;97653.00;;;35.14;31.72
49947;BME280;35839;48.662;13.300;2023-08-12T07:08:09;97654.69;;;34.96;31.89
49947;BME280;35839;48.662;13.300;2023-08-12T07:10:40;97651.69;;;34.97;32.06
49947;BME280;35839;48.662;13.300;2023-08-12T07:13:06;97643.81;;;35.23;31.68
49947;BME280;35839;48.662;13.300;2023-08-12T07:15:31;97652.59;;;35.34;31.33
49947;BME280;35839;48.662;13.300;2023-08-12T07:17:57;97643.63;;;35.06;31.14
49947;BME280;35839;48.662;13.300;2023-08-12T07:20:25;97647.03;;;34.70;31.58
49947;BME280;35839;48.662;13.300;2023-08-12T07:22:51;97638.75;;;34.75;31.98
49947;BME280;35839;48.662;13.300;2023-08-12T07:25:16;97636.16;;;35.25;32.05
49947;BME280;35839;48.662;13.300;2023-08-12T07:27:42;97632.72;;;36.06;31.12
49947;BME280;35839;48.662;13.300;2023-08-12T07:30:08;97635.06;;;36.22;30.99
49947;BME280;35839;48.662;13.300;2023-08-12T07:32:33;97634.00;;;35.86;30.56
49947;BME280;35839;48.662;13.300;2023-08-12T07:34:59;97626.53;;;36.15;30.36
49947;BME280;35839;48.662;13.300;2023-08-12T07:37:25;97629.00;;;36.25;30.53
49947;BME280;35839;48.662;13.300;2023-08-12T07:39:50;97618.06;;;36.87;29.69
49947;BME280;35839;48.662;13.300;2023-08-12T07:42:15;97623.16;;;37.11;29.94
49947;BME280;35839;48.662;13.300;2023-08-12T07:44:41;97617.09;;;37.41;29.75
49947;BME280;35839;48.662;13.300;2023-08-12T07:47:06;97618.00;;;37.10;28.50
49947;BME280;35839;48.662;13.300;2023-08-12T07:49:31;97620.13;;;37.30;28.42
49947;BME280;35839;48.662;13.300;2023-08-12T07:51:57;97623.00;;;36.14;30.65
49947;BME280;35839;48.662;13.300;2023-08-12T07:54:22;97621.97;;;37.04;29.44
49947;BME280;35839;48.662;13.300;2023-08-12T07:56:47;97618.03;;;37.27;28.89
49947;BME280;35839;48.662;13.300;2023-08-12T07:59:12;97613.44;;;37.71;28.48
49947;BME280;35839;48.662;13.300;2023-08-12T08:01:38;97619.78;;;37.15;28.92
49947;BME280;35839;48.662;13.300;2023-08-12T08:04:03;97622.28;;;36.94;30.09
49947;BME280;35839;48.662;13.300;2023-08-12T08:06:29;97615.94;;;36.76;29.23
49947;BME280;35839;48.662;13.300;2023-08-12T08:08:54;97614.84;;;37.51;28.65
49947;BME280;35839;48.662;13.300;2023-08-12T08:11:20;97613.44;;;37.71;28.38
49947;BME280;35839;48.662;13.300;2023-08-12T08:13:46;97609.53;;;37.38;28.89
49947;BME280;35839;48.662;13.300;2023-08-12T08:16:11;97608.09;;;37.31;29.04
49947;BME280;35839;48.662;13.300;2023-08-12T08:18:36;97609.78;;;38.96;26.77
49947;BME280;35839;48.662;13.300;2023-08-12T08:21:01;97610.88;;;38.66;27.56
49947;BME280;35839;48.662;13.300;2023-08-12T08:23:27;97618.81;;;38.41;27.47
49947;BME280;35839;48.662;13.300;2023-08-12T08:25:52;97607.31;;;37.92;28.36
49947;BME280;35839;48.662;13.300;2023-08-12T08:28:17;97615.38;;;37.80;28.41
49947;BME280;35839;48.662;13.300;2023-08-12T08:30:43;97614.13;;;38.42;27.98
49947;BME280;35839;48.662;13.300;2023-08-12T08:33:08;97617.44;;;38.73;27.23
49947;BME280;35839;48.662;13.300;2023-08-12T08:35:34;97613.94;;;38.55;26.93
49947;BME280;35839;48.662;13.300;2023-08-12T08:37:59;97627.31;;;38.57;26.87
49947;BME280;35839;48.662;13.300;2023-08-12T08:40:25;97612.00;;;38.65;26.28
49947;BME280;35839;48.662;13.300;2023-08-12T08:42:52;97613.78;;;38.99;26.54
49947;BME280;35839;48.662;13.300;2023-08-12T08:45:22;97609.28;;;39.54;26.45
49947;BME280;35839;48.662;13.300;2023-08-12T08:47:51;97613.63;;;40.09;25.51
49947;BME280;35839;48.662;13.300;2023-08-12T08:50:17;97609.63;;;40.07;26.00
49947;BME280;35839;48.662;13.300;2023-08-12T08:52:43;97615.44;;;40.05;26.02
49947;BME280;35839;48.662;13.300;2023-08-12T08:55:08;97612.88;;;39.88;26.13
49947;BME280;35839;48.662;13.300;2023-08-12T08:57:35;97607.50;;;40.24;25.40
49947;BME280;35839;48.662;13.300;2023-08-12T09:00:00;97608.31;;;41.20;24.74
49947;BME280;35839;48.662;13.300;2023-08-12T09:02:26;97602.63;;;41.81;23.49
49947;BME280;35839;48.662;13.300;2023-08-12T09:04:52;97609.59;;;41.51;24.68
49947;BME280;35839;48.662;13.300;2023-08-12T09:07:18;97608.53;;;41.15;25.02
49947;BME280;35839;48.662;13.300;2023-08-12T09:09:47;97611.72;;;41.17;24.62
49947;BME280;35839;48.662;13.300;2023-08-12T09:12:15;97609.88;;;41.21;24.74
49947;BME280;35839;48.662;13.300;2023-08-12T09:14:42;97617.00;;;40.73;25.51
49947;BME280;35839;48.662;13.300;2023-08-12T09:17:08;97605.53;;;40.95;24.81
49947;BME280;35839;48.662;13.300;2023-08-12T09:19:34;97613.44;;;40.97;25.16
49947;BME280;35839;48.662;13.300;2023-08-12T09:21:59;97614.94;;;40.94;25.11
49947;BME280;35839;48.662;13.300;2023-08-12T09:24:26;97617.91;;;40.77;25.06
49947;BME280;35839;48.662;13.300;2023-08-12T09:26:55;97618.88;;;41.46;24.41
49947;BME280;35839;48.662;13.300;2023-08-12T09:29:28;97616.81;;;41.55;23.88
49947;BME280;35839;48.662;13.300;2023-08-12T09:31:54;97610.63;;;42.15;23.54
49947;BME280;35839;48.662;13.300;2023-08-12T09:34:19;97607.72;;;40.90;24.72
49947;BME280;35839;48.662;13.300;2023-08-12T09:36:44;97611.81;;;40.96;24.90
49947;BME280;35839;48.662;13.300;2023-08-12T09:39:12;97609.53;;;41.75;24.19
49947;BME280;35839;48.662;13.300;2023-08-12T09:41:38;97606.47;;;41.24;23.03
49947;BME280;35839;48.662;13.300;2023-08-12T09:44:06;97610.31;;;41.47;24.23
49947;BME280;35839;48.662;13.300;2023-08-12T09:46:34;97600.47;;;41.34;23.56
49947;BME280;35839;48.662;13.300;2023-08-12T09:49:00;97607.38;;;40.79;24.25
49947;BME280;35839;48.662;13.300;2023-08-12T09:51:25;97596.72;;;41.26;24.28
49947;BME280;35839;48.662;13.300;2023-08-12T09:53:51;97599.34;;;41.76;24.02
49947;BME280;35839;48.662;13.300;2023-08-12T09:56:22;97597.53;;;41.96;23.59
49947;BME280;35839;48.662;13.300;2023-08-12T09:58:48;97593.38;;;41.33;24.21
49947;BME280;35839;48.662;13.300;2023-08-12T10:01:18;97589.03;;;42.01;23.64
49947;BME280;35839;48.662;13.300;2023-08-12T10:03:44;97595.78;;;41.35;24.58
49947;BME280;35839;48.662;13.300;2023-08-12T10:06:11;97593.50;;;40.63;25.13
49947;BME280;35839;48.662;13.300;2023-08-12T10:08:37;97593.69;;;42.28;23.53
49947;BME280;35839;48.662;13.300;2023-08-12T10:11:03;97584.28;;;43.25;22.27
49947;BME280;35839;48.662;13.300;2023-08-12T10:13:28;97584.72;;;43.46;22.45
49947;BME280;35839;48.662;13.300;2023-08-12T10:15:54;97583.09;;;44.04;22.11
49947;BME280;35839;48.662;13.300;2023-08-12T10:18:19;97574.28;;;42.69;23.34
49947;BME280;35839;48.662;13.300;2023-08-12T10:20:47;97571.78;;;41.88;23.18
49947;BME280;35839;48.662;13.300;2023-08-12T10:23:15;97573.91;;;42.70;24.04
49947;BME280;35839;48.662;13.300;2023-08-12T10:25:43;97578.41;;;43.10;23.20
49947;BME280;35839;48.662;13.300;2023-08-12T10:28:09;97576.22;;;44.36;21.28
49947;BME280;35839;48.662;13.300;2023-08-12T10:30:34;97571.72;;;44.28;21.38
49947;BME280;35839;48.662;13.300;2023-08-12T10:33:00;97570.94;;;44.05;21.08
49947;BME280;35839;48.662;13.300;2023-08-12T10:35:46;97562.34;;;44.56;21.23
49947;BME280;35839;48.662;13.300;2023-08-12T10:38:20;97567.78;;;44.49;21.12
49947;BME280;35839;48.662;13.300;2023-08-12T10:40:46;97560.06;;;43.73;21.68
49947;BME280;35839;48.662;13.300;2023-08-12T10:43:12;97565.28;;;43.04;21.56
49947;BME280;35839;48.662;13.300;2023-08-12T10:45:49;97564.56;;;44.47;21.68
49947;BME280;35839;48.662;13.300;2023-08-12T10:48:21;97569.16;;;44.39;20.85
49947;BME280;35839;48.662;13.300;2023-08-12T10:50:53;97565.19;;;44.36;21.86
49947;BME280;35839;48.662;13.300;2023-08-12T10:53:29;97569.94;;;44.86;20.52
49947;BME280;35839;48.662;13.300;2023-08-12T10:56:02;97554.91;;;45.40;19.49
49947;BME280;35839;48.662;13.300;2023-08-12T10:58:29;97560.00;;;45.38;20.01
49947;BME280;35839;48.662;13.300;2023-08-12T11:00:56;97561.25;;;46.12;19.53
49947;BME280;35839;48.662;13.300;2023-08-12T11:03:22;97561.50;;;42.61;21.51
49947;BME280;35839;48.662;13.300;2023-08-12T11:05:48;97561.47;;;44.75;20.53
49947;BME280;35839;48.662;13.300;2023-08-12T11:08:13;97551.41;;;45.16;18.84
49947;BME280;35839;48.662;13.300;2023-08-12T11:10:39;97550.50;;;45.69;19.86
49947;BME280;35839;48.662;13.300;2023-08-12T11:13:04;97553.66;;;45.68;20.31
49947;BME280;35839;48.662;13.300;2023-08-12T11:15:36;97551.09;;;46.26;19.31
49947;BME280;35839;48.662;13.300;2023-08-12T11:18:06;97554.59;;;46.20;17.94
49947;BME280;35839;48.662;13.300;2023-08-12T11:20:36;97538.00;;;45.82;19.01
49947;BME280;35839;48.662;13.300;2023-08-12T11:23:03;97539.63;;;45.83;19.64
49947;BME280;35839;48.662;13.300;2023-08-12T11:25:30;97539.88;;;46.09;18.48
49947;BME280;35839;48.662;13.300;2023-08-12T11:27:56;97529.75;;;46.27;18.70
49947;BME280;35839;48.662;13.300;2023-08-12T11:30:22;97540.03;;;46.23;19.12
49947;BME280;35839;48.662;13.300;2023-08-12T11:32:52;97529.41;;;46.80;18.57
49947;BME280;35839;48.662;13.300;2023-08-12T11:35:19;97529.56;;;46.05;19.56
49947;BME280;35839;48.662;13.300;2023-08-12T11:37:47;97515.84;;;46.68;19.48
49947;BME280;35839;48.662;13.300;2023-08-12T11:40:13;97518.63;;;47.38;18.26
49947;BME280;35839;48.662;13.300;2023-08-12T11:42:45;97524.16;;;47.38;18.31
49947;BME280;35839;48.662;13.300;2023-08-12T11:45:11;97516.78;;;46.35;17.25
49947;BME280;35839;48.662;13.300;2023-08-12T11:47:39;97521.16;;;46.95;18.82
49947;BME280;35839;48.662;13.300;2023-08-12T11:50:09;97514.25;;;47.40;18.34
49947;BME280;35839;48.662;13.300;2023-08-12T11:52:36;97522.00;;;48.26;17.17
49947;BME280;35839;48.662;13.300;2023-08-12T11:55:02;97515.25;;;48.38;16.72
49947;BME280;35839;48.662;13.300;2023-08-12T11:57:28;97510.88;;;47.94;15.83
49947;BME280;35839;48.662;13.300;2023-08-12T11:59:58;97513.53;;;47.58;16.01
49947;BME280;35839;48.662;13.300;2023-08-12T12:02:25;97505.84;;;47.15;16.63
49947;BME280;35839;48.662;13.300;2023-08-12T12:04:51;97507.53;;;47.38;16.78
49947;BME280;35839;48.662;13.300;2023-08-12T12:07:21;97509.34;;;46.42;16.54
49947;BME280;35839;48.662;13.300;2023-08-12T12:09:51;97498.94;;;47.86;17.29
49947;BME280;35839;48.662;13.300;2023-08-12T12:12:17;97507.78;;;46.45;15.22
49947;BME280;35839;48.662;13.300;2023-08-12T12:14:42;97510.28;;;47.41;16.58
49947;BME280;35839;48.662;13.300;2023-08-12T12:17:08;97499.75;;;48.15;16.74
49947;BME280;35839;48.662;13.300;2023-08-12T12:19:40;97505.31;;;47.97;16.80
49947;BME280;35839;48.662;13.300;2023-08-12T12:22:05;97504.94;;;48.38;16.23
49947;BME280;35839;48.662;13.300;2023-08-12T12:24:31;97498.97;;;48.50;16.78
49947;BME280;35839;48.662;13.300;2023-08-12T12:26:56;97498.91;;;49.01;15.91
49947;BME280;35839;48.662;13.300;2023-08-12T12:29:22;97498.19;;;48.32;16.89
49947;BME280;35839;48.662;13.300;2023-08-12T12:31:47;97500.09;;;48.85;16.37
49947;BME280;35839;48.662;13.300;2023-08-12T12:34:13;97492.59;;;48.53;16.11
49947;BME280;35839;48.662;13.300;2023-08-12T12:36:39;97497.97;;;47.32;16.67
49947;BME280;35839;48.662;13.300;2023-08-12T12:39:06;97494.78;;;47.22;16.94
49947;BME280;35839;48.662;13.300;2023-08-12T12:41:32;97497.63;;;46.67;17.67
49947;BME280;35839;48.662;13.300;2023-08-12T12:43:59;97488.25;;;46.82;18.01
49947;BME280;35839;48.662;13.300;2023-08-12T12:46:25;97489.13;;;47.01;18.72
49947;BME280;35839;48.662;13.300;2023-08-12T12:48:50;97478.66;;;46.14;19.30
49947;BME280;35839;48.662;13.300;2023-08-12T12:51:15;97482.72;;;46.82;19.41
49947;BME280;35839;48.662;13.300;2023-08-12T12:53:41;97482.16;;;46.59;17.88
49947;BME280;35839;48.662;13.300;2023-08-12T12:56:06;97474.34;;;47.66;18.18
49947;BME280;35839;48.662;13.300;2023-08-12T12:58:36;97480.72;;;47.99;17.59
49947;BME280;35839;48.662;13.300;2023-08-12T13:01:03;97473.50;;;47.55;18.84
49947;BME280;35839;48.662;13.300;2023-08-12T13:03:31;97470.41;;;47.82;15.84
49947;BME280;35839;48.662;13.300;2023-08-12T13:05:57;97471.59;;;48.13;16.69
49947;BME280;35839;48.662;13.300;2023-08-12T13:08:23;97469.97;;;47.65;18.93
49947;BME280;35839;48.662;13.300;2023-08-12T13:10:49;97459.34;;;48.28;17.75
49947;BME280;35839;48.662;13.300;2023-08-12T13:13:15;97460.00;;;47.43;18.52
49947;BME280;35839;48.662;13.300;2023-08-12T13:15:45;97459.28;;;48.50;17.58
49947;BME280;35839;48.662;13.300;2023-08-12T13:18:11;97458.53;;;48.06;18.31
49947;BME280;35839;48.662;13.300;2023-08-12T13:20:37;97453.75;;;48.39;18.62
49947;BME280;35839;48.662;13.300;2023-08-12T13:23:03;97460.25;;;49.31;17.05
49947;BME280;35839;48.662;13.300;2023-08-12T13:25:30;97465.09;;;49.13;17.51
49947;BME280;35839;48.662;13.300;2023-08-12T13:27:56;97454.06;;;48.84;17.14
49947;BME280;35839;48.662;13.300;2023-08-12T13:30:21;97444.94;;;48.80;16.92
49947;BME280;35839;48.662;13.300;2023-08-12T13:32:47;97444.19;;;48.69;17.40
49947;BME280;35839;48.662;13.300;2023-08-12T13:35:12;97442.91;;;48.95;15.93
49947;BME280;35839;48.662;13.300;2023-08-12T13:37:37;97442.94;;;48.84;18.01
49947;BME280;35839;48.662;13.300;2023-08-12T13:40:03;97438.72;;;47.94;16.29
49947;BME280;35839;48.662;13.300;2023-08-12T13:42:28;97441.03;;;48.52;16.59
49947;BME280;35839;48.662;13.300;2023-08-12T13:44:54;97435.13;;;48.18;15.97
49947;BME280;35839;48.662;13.300;2023-08-12T13:47:19;97444.13;;;48.94;15.71
49947;BME280;35839;48.662;13.300;2023-08-12T13:49:44;97431.41;;;48.97;17.38
49947;BME280;35839;48.662;13.300;2023-08-12T13:52:09;97437.06;;;48.50;17.45
49947;BME280;35839;48.662;13.300;2023-08-12T13:54:35;97436.72;;;48.33;16.29
49947;BME280;35839;48.662;13.300;2023-08-12T13:57:00;97429.91;;;48.70;17.08
49947;BME280;35839;48.662;13.300;2023-08-12T13:59:25;97436.94;;;49.04;15.44
49947;BME280;35839;48.662;13.300;2023-08-12T14:01:51;97434.84;;;46.93;16.47
49947;BME280;35839;48.662;13.300;2023-08-12T14:04:16;97426.44;;;49.36;15.56
49947;BME280;35839;48.662;13.300;2023-08-12T14:06:41;97431.56;;;48.36;15.26
49947;BME280;35839;48.662;13.300;2023-08-12T14:09:06;97428.28;;;48.80;15.10
49947;BME280;35839;48.662;13.300;2023-08-12T14:11:33;97434.72;;;48.41;16.92
49947;BME280;35839;48.662;13.300;2023-08-12T14:13:58;97430.47;;;49.25;16.95
49947;BME280;35839;48.662;13.300;2023-08-12T14:16:24;97435.63;;;49.30;15.00
49947;BME280;35839;48.662;13.300;2023-08-12T14:18:49;97435.06;;;48.65;14.35
49947;BME280;35839;48.662;13.300;2023-08-12T14:21:14;97428.13;;;49.20;14.96
49947;BME280;35839;48.662;13.300;2023-08-12T14:23:40;97424.56;;;50.27;14.12
49947;BME280;35839;48.662;13.300;2023-08-12T14:26:05;97428.97;;;49.76;13.29
49947;BME280;35839;48.662;13.300;2023-08-12T14:28:30;97426.94;;;50.29;13.21
49947;BME280;35839;48.662;13.300;2023-08-12T14:30:55;97426.00;;;50.46;13.78
49947;BME280;35839;48.662;13.300;2023-08-12T14:33:21;97426.44;;;49.36;14.55
49947;BME280;35839;48.662;13.300;2023-08-12T14:35:49;97430.00;;;49.41;15.26
49947;BME280;35839;48.662;13.300;2023-08-12T14:38:16;97416.84;;;50.46;14.80
49947;BME280;35839;48.662;13.300;2023-08-12T14:40:41;97413.75;;;50.33;14.63
49947;BME280;35839;48.662;13.300;2023-08-12T14:43:06;97416.41;;;51.16;12.98
49947;BME280;35839;48.662;13.300;2023-08-12T14:45:32;97409.38;;;50.70;12.46
49947;BME280;35839;48.662;13.300;2023-08-12T14:47:57;97408.41;;;50.87;12.42
49947;BME280;35839;48.662;13.300;2023-08-12T14:50:22;97409.19;;;51.73;13.17
49947;BME280;35839;48.662;13.300;2023-08-12T14:52:47;97402.16;;;51.37;14.14
49947;BME280;35839;48.662;13.300;2023-08-12T14:55:13;97408.09;;;51.39;12.18
49947;BME280;35839;48.662;13.300;2023-08-12T14:57:38;97406.91;;;51.40;13.77
49947;BME280;35839;48.662;13.300;2023-08-12T15:00:04;97407.66;;;50.83;13.22
49947;BME280;35839;48.662;13.300;2023-08-12T15:02:31;97402.84;;;50.49;13.83
49947;BME280;35839;48.662;13.300;2023-08-12T15:04:59;97393.91;;;49.86;14.57
49947;BME280;35839;48.662;13.300;2023-08-12T15:07:24;97390.00;;;50.25;14.49
49947;BME280;35839;48.662;13.300;2023-08-12T15:09:50;97395.38;;;51.11;13.80
49947;BME280;35839;48.662;13.300;2023-08-12T15:12:17;97407.66;;;50.83;13.59
49947;BME280;35839;48.662;13.300;2023-08-12T15:14:42;97412.66;;;49.11;12.29
49947;BME280;35839;48.662;13.300;2023-08-12T15:17:08;97407.16;;;51.50;13.27
49947;BME280;35839;48.662;13.300;2023-08-12T15:19:33;97405.16;;;50.92;14.99
49947;BME280;35839;48.662;13.300;2023-08-12T15:21:59;97401.53;;;51.80;15.18
49947;BME280;35839;48.662;13.300;2023-08-12T15:24:24;97409.38;;;51.04;11.35
49947;BME280;35839;48.662;13.300;2023-08-12T15:26:49;97414.88;;;50.01;12.45
49947;BME280;35839;48.662;13.300;2023-08-12T15:29:15;97412.44;;;50.48;13.23
49947;BME280;35839;48.662;13.300;2023-08-12T15:31:43;97415.66;;;51.93;13.59
49947;BME280;35839;48.662;13.300;2023-08-12T15:34:08;97411.63;;;49.54;11.84
49947;BME280;35839;48.662;13.300;2023-08-12T15:36:33;97401.00;;;51.62;12.59
49947;BME280;35839;48.662;13.300;2023-08-12T15:39:01;97403.88;;;50.66;12.43
49947;BME280;35839;48.662;13.300;2023-08-12T15:41:26;97413.28;;;50.45;15.43
49947;BME280;35839;48.662;13.300;2023-08-12T15:43:52;97409.94;;;50.19;13.65
49947;BME280;35839;48.662;13.300;2023-08-12T15:46:17;97403.44;;;50.71;13.04
49947;BME280;35839;48.662;13.300;2023-08-12T15:48:42;97402.38;;;49.71;14.41
49947;BME280;35839;48.662;13.300;2023-08-12T15:51:08;97416.91;;;47.85;14.90
49947;BME280;35839;48.662;13.300;2023-08-12T15:53:33;97413.22;;;47.23;14.45
49947;BME280;35839;48.662;13.300;2023-08-12T15:55:58;97408.16;;;47.61;14.73
49947;BME280;35839;48.662;13.300;2023-08-12T15:58:24;97406.91;;;47.37;18.68
49947;BME280;35839;48.662;13.300;2023-08-12T16:00:49;97390.25;;;47.19;17.56
49947;BME280;35839;48.662;13.300;2023-08-12T16:03:15;97384.78;;;46.50;17.67
49947;BME280;35839;48.662;13.300;2023-08-12T16:05:41;97392.13;;;46.24;19.39
49947;BME280;35839;48.662;13.300;2023-08-12T16:08:06;97389.81;;;46.33;18.94
49947;BME280;35839;48.662;13.300;2023-08-12T16:10:34;97388.44;;;46.05;17.35
49947;BME280;35839;48.662;13.300;2023-08-12T16:12:59;97394.50;;;45.36;17.83
49947;BME280;35839;48.662;13.300;2023-08-12T16:15:27;97385.25;;;45.55;17.28
49947;BME280;35839;48.662;13.300;2023-08-12T16:17:53;97390.91;;;45.70;20.12
49947;BME280;35839;48.662;13.300;2023-08-12T16:20:18;97383.50;;;45.03;20.98
49947;BME280;35839;48.662;13.300;2023-08-12T16:22:43;97391.59;;;44.58;23.03
49947;BME280;35839;48.662;13.300;2023-08-12T16:25:12;97390.22;;;45.05;21.46
49947;BME280;35839;48.662;13.300;2023-08-12T16:27:37;97393.56;;;46.66;21.54
49947;BME280;35839;48.662;13.300;2023-08-12T16:30:03;97402.22;;;47.74;20.39
49947;BME280;35839;48.662;13.300;2023-08-12T16:32:28;97398.16;;;48.61;20.15
49947;BME280;35839;48.662;13.300;2023-08-12T16:34:53;97402.22;;;48.24;20.09
49947;BME280;35839;48.662;13.300;2023-08-12T16:37:19;97398.25;;;49.90;19.99
49947;BME280;35839;48.662;13.300;2023-08-12T16:39:44;97408.75;;;49.65;19.54
49947;BME280;35839;48.662;13.300;2023-08-12T16:42:10;97421.44;;;49.10;18.56
49947;BME280;35839;48.662;13.300;2023-08-12T16:44:35;97424.78;;;48.19;19.18
49947;BME280;35839;48.662;13.300;2023-08-12T16:47:00;97414.09;;;47.70;19.37
49947;BME280;35839;48.662;13.300;2023-08-12T16:49:26;97412.75;;;46.34;21.83
49947;BME280;35839;48.662;13.300;2023-08-12T16:51:51;97416.81;;;46.47;21.57
49947;BME280;35839;48.662;13.300;2023-08-12T16:54:17;97416.69;;;45.43;23.08
49947;BME280;35839;48.662;13.300;2023-08-12T16:56:42;97406.06;;;45.90;23.06
49947;BME280;35839;48.662;13.300;2023-08-12T16:59:08;97395.00;;;45.90;22.88
49947;BME280;35839;48.662;13.300;2023-08-12T17:01:33;97397.47;;;45.17;23.37
49947;BME280;35839;48.662;13.300;2023-08-12T17:03:59;97389.75;;;45.33;21.60
49947;BME280;35839;48.662;13.300;2023-08-12T17:06:25;97385.25;;;44.27;23.48
49947;BME280;35839;48.662;13.300;2023-08-12T17:08:50;97395.34;;;44.16;23.21
49947;BME280;35839;48.662;13.300;2023-08-12T17:11:16;97383.75;;;44.33;23.14
49947;BME280;35839;48.662;13.300;2023-08-12T17:13:41;97395.22;;;44.62;22.39
49947;BME280;35839;48.662;13.300;2023-08-12T17:16:06;97388.41;;;44.29;22.37
49947;BME280;35839;48.662;13.300;2023-08-12T17:18:31;97391.31;;;43.64;22.78
49947;BME280;35839;48.662;13.300;2023-08-12T17:20:57;97393.84;;;43.30;24.79
49947;BME280;35839;48.662;13.300;2023-08-12T17:23:22;97400.09;;;43.69;24.62
49947;BME280;35839;48.662;13.300;2023-08-12T17:25:48;97400.66;;;43.59;24.02
49947;BME280;35839;48.662;13.300;2023-08-12T17:28:13;97388.41;;;44.29;23.43
49947;BME280;35839;48.662;13.300;2023-08-12T17:30:39;97390.84;;;43.39;24.23
49947;BME280;35839;48.662;13.300;2023-08-12T17:33:04;97385.34;;;43.39;23.69
49947;BME280;35839;48.662;13.300;2023-08-12T17:35:32;97396.38;;;43.62;22.91
49947;BME280;35839;48.662;13.300;2023-08-12T17:37:57;97387.53;;;44.48;22.72
49947;BME280;35839;48.662;13.300;2023-08-12T17:40:22;97394.22;;;43.97;23.42
49947;BME280;35839;48.662;13.300;2023-08-12T17:42:48;97389.78;;;43.66;23.90
49947;BME280;35839;48.662;13.300;2023-08-12T17:45:14;97405.16;;;43.05;24.77
49947;BME280;35839;48.662;13.300;2023-08-12T17:47:39;97402.50;;;43.51;22.98